メインページ
METAR-TAF:

METAR-TAF

空港 :

ダマスカス国際空港

ダマスカス, シリア

緯度: 33-25N, 経度: 036-31E, 海抜: 608m

現時点の気象観測

当レポートは38分前の23:00(UTC)に作成
南/南西の風 8kt
気温 22°C
湿度 41%
気圧 1008 hPa
視程10km以上
1,500メートル以下は雲なし、積乱雲なし

METAR: OSDI 162300Z 21008KT CAVOK 22/08 Q1008

時間: 02:38 (23:38 UTC)

予報

予報は16日の 18時(UTC)から 17日の 24時(UTC)まで有効
西の風 10kt
視程10km以上
高度3000ftの雲はほとんどない
16日の 18時(UTC)から 16日の 20時(UTC)まで徐々に
変向風 3kt
視程10km以上
1,500メートル以下は雲なし、積乱雲なし
17日の 09時(UTC)から 17日の 18時(UTC)まで一時的に
南西の風 10kt、最大20ktの突風を伴う
視程10km以上
高度3000ftの雲はほとんどない

TAF: OSDI 1618/1724 26010KT 9999 FEW030 BECMG 1618/1620 VRB03KT CAVOK TEMPO 1709/1718 22010G20KT 9999 FEW030

4,000以上の空港の気象観測と天気予報(METAR報とTAF報)

利用可能な観測所は地図上に黄色い丸と赤い丸で示す。

丸の上にカーソルを重ねると観測所名を参照できる。

次にクリックすると気象観測と天気予報を参照できる。

マップの切り替え:黒色「×」印の緑ボタンをクリックして拡大、「-」印の緑ボタンをクリックして縮小、緑色の三角印をクリックして隣りの地図に切り替え


METAR-TAF: